sensor_id;sensor_type;location;lat;lon;timestamp;P1;durP1;ratioP1;P2;durP2;ratioP2
38208;SDS011;24016;52.102;11.584;2023-03-12T00:00:15;10.00;;;2.08;;
38208;SDS011;24016;52.102;11.584;2023-03-12T00:02:41;5.72;;;1.85;;
38208;SDS011;24016;52.102;11.584;2023-03-12T00:05:06;4.65;;;2.10;;
38208;SDS011;24016;52.102;11.584;2023-03-12T00:07:32;6.03;;;2.05;;
38208;SDS011;24016;52.102;11.584;2023-03-12T00:10:00;5.38;;;1.90;;
38208;SDS011;24016;52.102;11.584;2023-03-12T00:12:26;6.20;;;1.65;;
38208;SDS011;24016;52.102;11.584;2023-03-12T00:14:52;6.85;;;2.00;;
38208;SDS011;24016;52.102;11.584;2023-03-12T00:17:17;4.10;;;1.95;;
38208;SDS011;24016;52.102;11.584;2023-03-12T00:19:43;3.60;;;1.80;;
38208;SDS011;24016;52.102;11.584;2023-03-12T00:22:09;6.57;;;1.98;;
38208;SDS011;24016;52.102;11.584;2023-03-12T00:24:34;6.53;;;2.15;;
38208;SDS011;24016;52.102;11.584;2023-03-12T00:27:00;4.38;;;1.80;;
38208;SDS011;24016;52.102;11.584;2023-03-12T00:29:25;2.78;;;1.70;;
38208;SDS011;24016;52.102;11.584;2023-03-12T00:31:51;5.95;;;1.90;;
38208;SDS011;24016;52.102;11.584;2023-03-12T00:34:16;4.53;;;2.10;;
38208;SDS011;24016;52.102;11.584;2023-03-12T00:36:42;5.60;;;2.08;;
38208;SDS011;24016;52.102;11.584;2023-03-12T00:39:08;8.57;;;2.33;;
38208;SDS011;24016;52.102;11.584;2023-03-12T00:41:34;4.72;;;1.98;;
38208;SDS011;24016;52.102;11.584;2023-03-12T00:43:59;4.88;;;2.22;;
38208;SDS011;24016;52.102;11.584;2023-03-12T00:46:25;7.40;;;1.80;;
38208;SDS011;24016;52.102;11.584;2023-03-12T00:48:51;4.47;;;1.90;;
38208;SDS011;24016;52.102;11.584;2023-03-12T00:51:16;6.40;;;1.95;;
38208;SDS011;24016;52.102;11.584;2023-03-12T00:53:43;5.50;;;1.50;;
38208;SDS011;24016;52.102;11.584;2023-03-12T00:56:08;5.15;;;1.73;;
38208;SDS011;24016;52.102;11.584;2023-03-12T00:58:35;5.13;;;1.90;;
38208;SDS011;24016;52.102;11.584;2023-03-12T01:01:01;3.72;;;2.00;;
38208;SDS011;24016;52.102;11.584;2023-03-12T01:03:27;6.13;;;1.80;;
38208;SDS011;24016;52.102;11.584;2023-03-12T01:05:52;2.50;;;1.73;;
38208;SDS011;24016;52.102;11.584;2023-03-12T01:08:20;3.70;;;1.92;;
38208;SDS011;24016;52.102;11.584;2023-03-12T01:10:47;5.70;;;1.85;;
38208;SDS011;24016;52.102;11.584;2023-03-12T01:13:13;3.05;;;1.80;;
38208;SDS011;24016;52.102;11.584;2023-03-12T01:15:38;3.80;;;1.73;;
38208;SDS011;24016;52.102;11.584;2023-03-12T01:18:04;5.05;;;1.70;;
38208;SDS011;24016;52.102;11.584;2023-03-12T01:20:29;6.47;;;1.70;;
38208;SDS011;24016;52.102;11.584;2023-03-12T01:22:55;5.93;;;2.08;;
38208;SDS011;24016;52.102;11.584;2023-03-12T01:25:21;5.07;;;1.60;;
38208;SDS011;24016;52.102;11.584;2023-03-12T01:27:46;5.32;;;1.90;;
38208;SDS011;24016;52.102;11.584;2023-03-12T01:30:12;4.30;;;1.58;;
38208;SDS011;24016;52.102;11.584;2023-03-12T01:32:38;2.70;;;1.73;;
38208;SDS011;24016;52.102;11.584;2023-03-12T01:35:03;6.95;;;2.33;;
38208;SDS011;24016;52.102;11.584;2023-03-12T01:37:30;5.88;;;1.63;;
38208;SDS011;24016;52.102;11.584;2023-03-12T01:39:56;8.27;;;1.70;;
38208;SDS011;24016;52.102;11.584;2023-03-12T01:42:22;3.22;;;1.80;;
38208;SDS011;24016;52.102;11.584;2023-03-12T01:44:58;4.57;;;1.70;;
38208;SDS011;24016;52.102;11.584;2023-03-12T01:47:25;4.85;;;1.70;;
38208;SDS011;24016;52.102;11.584;2023-03-12T01:49:52;4.50;;;1.75;;
38208;SDS011;24016;52.102;11.584;2023-03-12T01:52:21;6.53;;;1.85;;
38208;SDS011;24016;52.102;11.584;2023-03-12T01:55:05;2.92;;;1.50;;
38208;SDS011;24016;52.102;11.584;2023-03-12T01:57:34;3.75;;;1.70;;
38208;SDS011;24016;52.102;11.584;2023-03-12T02:00:10;4.13;;;1.80;;
38208;SDS011;24016;52.102;11.584;2023-03-12T02:02:42;3.33;;;1.60;;
38208;SDS011;24016;52.102;11.584;2023-03-12T02:05:26;4.10;;;1.80;;
38208;SDS011;24016;52.102;11.584;2023-03-12T02:07:57;3.35;;;1.70;;
38208;SDS011;24016;52.102;11.584;2023-03-12T02:10:22;7.65;;;1.83;;
38208;SDS011;24016;52.102;11.584;2023-03-12T02:12:49;5.75;;;1.42;;
38208;SDS011;24016;52.102;11.584;2023-03-12T02:15:15;3.42;;;1.67;;
38208;SDS011;24016;52.102;11.584;2023-03-12T02:17:41;5.85;;;2.17;;
38208;SDS011;24016;52.102;11.584;2023-03-12T02:22:54;4.35;;;1.55;;
38208;SDS011;24016;52.102;11.584;2023-03-12T02:25:27;3.42;;;1.33;;
38208;SDS011;24016;52.102;11.584;2023-03-12T02:27:58;2.08;;;1.40;;
38208;SDS011;24016;52.102;11.584;2023-03-12T02:30:27;5.60;;;1.80;;
38208;SDS011;24016;52.102;11.584;2023-03-12T02:32:54;3.72;;;1.63;;
38208;SDS011;24016;52.102;11.584;2023-03-12T02:35:21;3.58;;;1.58;;
38208;SDS011;24016;52.102;11.584;2023-03-12T02:37:52;2.92;;;1.90;;
38208;SDS011;24016;52.102;11.584;2023-03-12T02:40:26;3.65;;;1.58;;
38208;SDS011;24016;52.102;11.584;2023-03-12T02:42:58;3.95;;;1.58;;
38208;SDS011;24016;52.102;11.584;2023-03-12T02:45:26;6.03;;;1.52;;
38208;SDS011;24016;52.102;11.584;2023-03-12T02:47:53;4.30;;;1.88;;
38208;SDS011;24016;52.102;11.584;2023-03-12T02:50:19;3.47;;;1.65;;
38208;SDS011;24016;52.102;11.584;2023-03-12T02:52:44;3.45;;;1.55;;
38208;SDS011;24016;52.102;11.584;2023-03-12T02:55:10;4.90;;;1.65;;
38208;SDS011;24016;52.102;11.584;2023-03-12T02:57:35;2.70;;;1.40;;
38208;SDS011;24016;52.102;11.584;2023-03-12T03:00:06;5.63;;;1.98;;
38208;SDS011;24016;52.102;11.584;2023-03-12T03:02:39;3.42;;;1.50;;
38208;SDS011;24016;52.102;11.584;2023-03-12T03:05:06;4.18;;;1.77;;
38208;SDS011;24016;52.102;11.584;2023-03-12T03:07:32;4.60;;;1.77;;
38208;SDS011;24016;52.102;11.584;2023-03-12T03:09:58;5.90;;;1.88;;
38208;SDS011;24016;52.102;11.584;2023-03-12T03:12:28;4.47;;;1.50;;
38208;SDS011;24016;52.102;11.584;2023-03-12T03:14:57;3.47;;;1.85;;
38208;SDS011;24016;52.102;11.584;2023-03-12T03:17:23;6.55;;;1.95;;
38208;SDS011;24016;52.102;11.584;2023-03-12T03:19:49;5.18;;;1.90;;
38208;SDS011;24016;52.102;11.584;2023-03-12T03:22:15;4.13;;;1.77;;
38208;SDS011;24016;52.102;11.584;2023-03-12T03:24:41;4.53;;;1.83;;
38208;SDS011;24016;52.102;11.584;2023-03-12T03:27:07;3.75;;;1.67;;
38208;SDS011;24016;52.102;11.584;2023-03-12T03:29:33;5.30;;;2.13;;
38208;SDS011;24016;52.102;11.584;2023-03-12T03:31:58;2.95;;;1.92;;
38208;SDS011;24016;52.102;11.584;2023-03-12T03:34:24;2.47;;;1.38;;
38208;SDS011;24016;52.102;11.584;2023-03-12T03:36:49;3.92;;;1.70;;
38208;SDS011;24016;52.102;11.584;2023-03-12T03:39:15;3.40;;;1.80;;
38208;SDS011;24016;52.102;11.584;2023-03-12T03:41:41;3.97;;;1.63;;
38208;SDS011;24016;52.102;11.584;2023-03-12T03:44:06;2.92;;;1.67;;
38208;SDS011;24016;52.102;11.584;2023-03-12T03:46:32;7.07;;;1.90;;
38208;SDS011;24016;52.102;11.584;2023-03-12T03:48:59;6.00;;;1.73;;
38208;SDS011;24016;52.102;11.584;2023-03-12T03:51:25;5.80;;;1.90;;
38208;SDS011;24016;52.102;11.584;2023-03-12T03:53:51;6.10;;;2.05;;
38208;SDS011;24016;52.102;11.584;2023-03-12T03:56:16;4.93;;;1.73;;
38208;SDS011;24016;52.102;11.584;2023-03-12T03:58:42;4.60;;;1.40;;
38208;SDS011;24016;52.102;11.584;2023-03-12T04:01:07;2.47;;;1.50;;
38208;SDS011;24016;52.102;11.584;2023-03-12T04:03:33;5.82;;;1.83;;
38208;SDS011;24016;52.102;11.584;2023-03-12T04:06:00;3.20;;;1.70;;
38208;SDS011;24016;52.102;11.584;2023-03-12T04:08:27;3.05;;;1.83;;
38208;SDS011;24016;52.102;11.584;2023-03-12T04:10:53;3.53;;;1.60;;
38208;SDS011;24016;52.102;11.584;2023-03-12T04:13:19;5.07;;;1.83;;
38208;SDS011;24016;52.102;11.584;2023-03-12T04:15:49;5.57;;;1.90;;
38208;SDS011;24016;52.102;11.584;2023-03-12T04:18:16;4.75;;;1.92;;
38208;SDS011;24016;52.102;11.584;2023-03-12T04:20:43;2.20;;;1.48;;
38208;SDS011;24016;52.102;11.584;2023-03-12T04:23:08;3.38;;;1.40;;
38208;SDS011;24016;52.102;11.584;2023-03-12T04:25:34;4.60;;;1.75;;
38208;SDS011;24016;52.102;11.584;2023-03-12T04:28:00;2.13;;;1.60;;
38208;SDS011;24016;52.102;11.584;2023-03-12T04:30:26;3.53;;;1.48;;
38208;SDS011;24016;52.102;11.584;2023-03-12T04:32:52;2.95;;;1.70;;
38208;SDS011;24016;52.102;11.584;2023-03-12T04:35:18;2.50;;;1.60;;
38208;SDS011;24016;52.102;11.584;2023-03-12T04:37:44;2.55;;;1.45;;
38208;SDS011;24016;52.102;11.584;2023-03-12T04:40:09;3.92;;;1.60;;
38208;SDS011;24016;52.102;11.584;2023-03-12T04:42:35;5.15;;;1.60;;
38208;SDS011;24016;52.102;11.584;2023-03-12T04:45:02;3.28;;;1.60;;
38208;SDS011;24016;52.102;11.584;2023-03-12T04:47:30;3.75;;;1.85;;
38208;SDS011;24016;52.102;11.584;2023-03-12T04:49:56;4.63;;;1.80;;
38208;SDS011;24016;52.102;11.584;2023-03-12T04:52:22;3.58;;;1.52;;
38208;SDS011;24016;52.102;11.584;2023-03-12T04:54:47;5.47;;;1.80;;
38208;SDS011;24016;52.102;11.584;2023-03-12T04:57:13;3.13;;;2.03;;
38208;SDS011;24016;52.102;11.584;2023-03-12T04:59:38;4.72;;;2.00;;
38208;SDS011;24016;52.102;11.584;2023-03-12T05:02:04;6.50;;;2.00;;
38208;SDS011;24016;52.102;11.584;2023-03-12T05:04:29;5.22;;;1.80;;
38208;SDS011;24016;52.102;11.584;2023-03-12T05:06:55;4.75;;;1.75;;
38208;SDS011;24016;52.102;11.584;2023-03-12T05:09:20;4.05;;;1.60;;
38208;SDS011;24016;52.102;11.584;2023-03-12T05:11:46;4.20;;;1.90;;
38208;SDS011;24016;52.102;11.584;2023-03-12T05:14:12;3.63;;;1.88;;
38208;SDS011;24016;52.102;11.584;2023-03-12T05:16:37;5.43;;;2.00;;
38208;SDS011;24016;52.102;11.584;2023-03-12T05:19:03;3.55;;;1.80;;
38208;SDS011;24016;52.102;11.584;2023-03-12T05:21:29;4.88;;;1.90;;
38208;SDS011;24016;52.102;11.584;2023-03-12T05:23:54;3.03;;;1.85;;
38208;SDS011;24016;52.102;11.584;2023-03-12T05:26:21;3.88;;;1.92;;
38208;SDS011;24016;52.102;11.584;2023-03-12T05:28:49;4.90;;;1.90;;
38208;SDS011;24016;52.102;11.584;2023-03-12T05:31:16;5.78;;;1.63;;
38208;SDS011;24016;52.102;11.584;2023-03-12T05:33:42;5.40;;;2.05;;
38208;SDS011;24016;52.102;11.584;2023-03-12T05:36:08;4.32;;;1.80;;
38208;SDS011;24016;52.102;11.584;2023-03-12T05:38:35;4.75;;;2.15;;
38208;SDS011;24016;52.102;11.584;2023-03-12T05:41:00;6.35;;;1.83;;
38208;SDS011;24016;52.102;11.584;2023-03-12T05:43:26;4.82;;;2.17;;
38208;SDS011;24016;52.102;11.584;2023-03-12T05:45:52;5.20;;;2.03;;
38208;SDS011;24016;52.102;11.584;2023-03-12T05:48:22;8.48;;;2.05;;
38208;SDS011;24016;52.102;11.584;2023-03-12T05:50:47;6.20;;;1.92;;
38208;SDS011;24016;52.102;11.584;2023-03-12T05:53:13;4.93;;;2.05;;
38208;SDS011;24016;52.102;11.584;2023-03-12T05:55:38;3.40;;;2.10;;
38208;SDS011;24016;52.102;11.584;2023-03-12T05:58:04;3.83;;;2.00;;
38208;SDS011;24016;52.102;11.584;2023-03-12T06:00:31;5.45;;;2.30;;
38208;SDS011;24016;52.102;11.584;2023-03-12T06:02:59;4.38;;;2.70;;
38208;SDS011;24016;52.102;11.584;2023-03-12T06:05:25;6.93;;;2.47;;
38208;SDS011;24016;52.102;11.584;2023-03-12T06:07:50;4.80;;;2.80;;
38208;SDS011;24016;52.102;11.584;2023-03-12T06:10:16;4.43;;;2.65;;
38208;SDS011;24016;52.102;11.584;2023-03-12T06:12:43;7.93;;;3.90;;
38208;SDS011;24016;52.102;11.584;2023-03-12T06:15:09;5.38;;;3.28;;
38208;SDS011;24016;52.102;11.584;2023-03-12T06:17:34;5.43;;;2.72;;
38208;SDS011;24016;52.102;11.584;2023-03-12T06:20:00;2.95;;;2.30;;
38208;SDS011;24016;52.102;11.584;2023-03-12T06:22:25;6.35;;;2.50;;
38208;SDS011;24016;52.102;11.584;2023-03-12T06:24:52;4.40;;;2.70;;
38208;SDS011;24016;52.102;11.584;2023-03-12T06:27:18;3.40;;;2.67;;
38208;SDS011;24016;52.102;11.584;2023-03-12T06:29:43;7.57;;;2.67;;
38208;SDS011;24016;52.102;11.584;2023-03-12T06:32:11;11.23;;;5.72;;
38208;SDS011;24016;52.102;11.584;2023-03-12T06:34:37;11.20;;;5.40;;
38208;SDS011;24016;52.102;11.584;2023-03-12T06:37:03;6.18;;;3.90;;
38208;SDS011;24016;52.102;11.584;2023-03-12T06:39:28;8.85;;;3.40;;
38208;SDS011;24016;52.102;11.584;2023-03-12T06:41:55;5.00;;;3.10;;
38208;SDS011;24016;52.102;11.584;2023-03-12T06:44:20;3.70;;;2.28;;
38208;SDS011;24016;52.102;11.584;2023-03-12T06:46:46;6.53;;;2.65;;
38208;SDS011;24016;52.102;11.584;2023-03-12T06:49:12;6.53;;;2.75;;
38208;SDS011;24016;52.102;11.584;2023-03-12T06:51:38;7.43;;;2.58;;
38208;SDS011;24016;52.102;11.584;2023-03-12T06:54:04;5.25;;;2.50;;
38208;SDS011;24016;52.102;11.584;2023-03-12T06:56:30;4.25;;;2.10;;
38208;SDS011;24016;52.102;11.584;2023-03-12T06:58:55;5.50;;;2.90;;
38208;SDS011;24016;52.102;11.584;2023-03-12T07:01:21;8.05;;;3.50;;
38208;SDS011;24016;52.102;11.584;2023-03-12T07:03:47;9.80;;;4.47;;
38208;SDS011;24016;52.102;11.584;2023-03-12T07:06:16;43.47;;;20.70;;
38208;SDS011;24016;52.102;11.584;2023-03-12T07:08:44;47.45;;;24.00;;
38208;SDS011;24016;52.102;11.584;2023-03-12T07:11:09;37.45;;;19.95;;
38208;SDS011;24016;52.102;11.584;2023-03-12T07:13:36;41.63;;;24.60;;
38208;SDS011;24016;52.102;11.584;2023-03-12T07:16:01;13.75;;;8.55;;
38208;SDS011;24016;52.102;11.584;2023-03-12T07:18:27;11.55;;;6.88;;
38208;SDS011;24016;52.102;11.584;2023-03-12T07:20:53;5.32;;;3.38;;
38208;SDS011;24016;52.102;11.584;2023-03-12T07:23:19;6.75;;;3.63;;
38208;SDS011;24016;52.102;11.584;2023-03-12T07:25:46;7.88;;;3.85;;
38208;SDS011;24016;52.102;11.584;2023-03-12T07:28:12;6.90;;;4.22;;
38208;SDS011;24016;52.102;11.584;2023-03-12T07:30:38;8.73;;;3.35;;
38208;SDS011;24016;52.102;11.584;2023-03-12T07:33:05;5.38;;;4.00;;
38208;SDS011;24016;52.102;11.584;2023-03-12T07:35:32;7.45;;;3.30;;
38208;SDS011;24016;52.102;11.584;2023-03-12T07:38:00;5.63;;;3.50;;
38208;SDS011;24016;52.102;11.584;2023-03-12T07:40:26;5.78;;;3.55;;
38208;SDS011;24016;52.102;11.584;2023-03-12T07:42:52;11.43;;;6.25;;
38208;SDS011;24016;52.102;11.584;2023-03-12T07:45:18;10.48;;;5.40;;
38208;SDS011;24016;52.102;11.584;2023-03-12T07:47:44;11.45;;;3.67;;
38208;SDS011;24016;52.102;11.584;2023-03-12T07:50:09;6.75;;;3.38;;
38208;SDS011;24016;52.102;11.584;2023-03-12T07:52:35;5.38;;;3.22;;
38208;SDS011;24016;52.102;11.584;2023-03-12T07:55:01;6.40;;;2.95;;
38208;SDS011;24016;52.102;11.584;2023-03-12T07:57:29;6.32;;;3.28;;
38208;SDS011;24016;52.102;11.584;2023-03-12T07:59:55;6.97;;;2.45;;
38208;SDS011;24016;52.102;11.584;2023-03-12T08:02:20;6.60;;;2.60;;
38208;SDS011;24016;52.102;11.584;2023-03-12T08:04:46;5.22;;;2.30;;
38208;SDS011;24016;52.102;11.584;2023-03-12T08:07:12;6.55;;;2.67;;
38208;SDS011;24016;52.102;11.584;2023-03-12T08:09:38;6.00;;;2.25;;
38208;SDS011;24016;52.102;11.584;2023-03-12T08:12:07;5.95;;;2.00;;
38208;SDS011;24016;52.102;11.584;2023-03-12T08:14:33;6.35;;;2.60;;
38208;SDS011;24016;52.102;11.584;2023-03-12T08:16:59;6.18;;;3.10;;
38208;SDS011;24016;52.102;11.584;2023-03-12T08:19:25;6.20;;;2.28;;
38208;SDS011;24016;52.102;11.584;2023-03-12T08:21:51;3.22;;;2.00;;
38208;SDS011;24016;52.102;11.584;2023-03-12T08:24:18;4.70;;;2.47;;
38208;SDS011;24016;52.102;11.584;2023-03-12T08:26:45;5.82;;;2.15;;
38208;SDS011;24016;52.102;11.584;2023-03-12T08:29:10;7.38;;;2.60;;
38208;SDS011;24016;52.102;11.584;2023-03-12T08:31:36;3.15;;;1.80;;
38208;SDS011;24016;52.102;11.584;2023-03-12T08:34:01;7.28;;;2.47;;
38208;SDS011;24016;52.102;11.584;2023-03-12T08:36:27;4.40;;;2.45;;
38208;SDS011;24016;52.102;11.584;2023-03-12T08:38:53;10.40;;;4.30;;
38208;SDS011;24016;52.102;11.584;2023-03-12T08:41:19;6.03;;;2.65;;
38208;SDS011;24016;52.102;11.584;2023-03-12T08:43:44;6.50;;;3.25;;
38208;SDS011;24016;52.102;11.584;2023-03-12T08:46:10;11.23;;;4.65;;
38208;SDS011;24016;52.102;11.584;2023-03-12T08:48:37;11.90;;;6.28;;
38208;SDS011;24016;52.102;11.584;2023-03-12T08:51:03;10.23;;;5.25;;
38208;SDS011;24016;52.102;11.584;2023-03-12T08:53:31;8.98;;;3.92;;
38208;SDS011;24016;52.102;11.584;2023-03-12T08:55:58;4.43;;;2.30;;
38208;SDS011;24016;52.102;11.584;2023-03-12T08:58:24;6.90;;;3.03;;
38208;SDS011;24016;52.102;11.584;2023-03-12T09:00:50;7.32;;;2.97;;
38208;SDS011;24016;52.102;11.584;2023-03-12T09:03:16;6.25;;;2.97;;
38208;SDS011;24016;52.102;11.584;2023-03-12T09:05:43;4.97;;;2.50;;
38208;SDS011;24016;52.102;11.584;2023-03-12T09:08:09;6.50;;;1.90;;
38208;SDS011;24016;52.102;11.584;2023-03-12T09:10:36;4.38;;;2.05;;
38208;SDS011;24016;52.102;11.584;2023-03-12T09:13:03;5.60;;;2.08;;
38208;SDS011;24016;52.102;11.584;2023-03-12T09:15:29;5.32;;;2.40;;
38208;SDS011;24016;52.102;11.584;2023-03-12T09:17:55;5.00;;;2.63;;
38208;SDS011;24016;52.102;11.584;2023-03-12T09:20:21;5.57;;;2.63;;
38208;SDS011;24016;52.102;11.584;2023-03-12T09:22:48;5.47;;;2.83;;
38208;SDS011;24016;52.102;11.584;2023-03-12T09:25:13;6.15;;;2.90;;
38208;SDS011;24016;52.102;11.584;2023-03-12T09:27:43;5.53;;;2.13;;
38208;SDS011;24016;52.102;11.584;2023-03-12T09:30:12;3.65;;;2.25;;
38208;SDS011;24016;52.102;11.584;2023-03-12T09:35:11;4.03;;;2.60;;
38208;SDS011;24016;52.102;11.584;2023-03-12T09:37:38;5.20;;;2.28;;
38208;SDS011;24016;52.102;11.584;2023-03-12T09:40:04;5.15;;;2.08;;
38208;SDS011;24016;52.102;11.584;2023-03-12T09:42:40;6.15;;;2.17;;
38208;SDS011;24016;52.102;11.584;2023-03-12T09:45:19;4.95;;;2.67;;
38208;SDS011;24016;52.102;11.584;2023-03-12T09:47:49;6.03;;;2.20;;
38208;SDS011;24016;52.102;11.584;2023-03-12T09:50:22;4.85;;;2.50;;
38208;SDS011;24016;52.102;11.584;2023-03-12T09:52:56;4.05;;;1.98;;
38208;SDS011;24016;52.102;11.584;2023-03-12T09:55:31;5.95;;;2.10;;
38208;SDS011;24016;52.102;11.584;2023-03-12T10:00:31;4.90;;;2.30;;
38208;SDS011;24016;52.102;11.584;2023-03-12T10:05:37;6.57;;;2.22;;
38208;SDS011;24016;52.102;11.584;2023-03-12T10:13:51;5.72;;;2.17;;
38208;SDS011;24016;52.102;11.584;2023-03-12T10:20:28;4.03;;;1.83;;
38208;SDS011;24016;52.102;11.584;2023-03-12T10:22:48;6.30;;;1.95;;
38208;SDS011;24016;52.102;11.584;2023-03-12T10:25:56;5.13;;;1.85;;
38208;SDS011;24016;52.102;11.584;2023-03-12T10:28:50;4.82;;;1.95;;
38208;SDS011;24016;52.102;11.584;2023-03-12T10:31:24;4.57;;;1.80;;
38208;SDS011;24016;52.102;11.584;2023-03-12T10:33:55;5.38;;;2.40;;
38208;SDS011;24016;52.102;11.584;2023-03-12T10:36:24;4.65;;;2.50;;
38208;SDS011;24016;52.102;11.584;2023-03-12T10:38:57;7.35;;;3.30;;
38208;SDS011;24016;52.102;11.584;2023-03-12T10:41:24;7.35;;;2.70;;
38208;SDS011;24016;52.102;11.584;2023-03-12T10:43:53;6.38;;;2.65;;
38208;SDS011;24016;52.102;11.584;2023-03-12T10:46:40;6.38;;;2.70;;
38208;SDS011;24016;52.102;11.584;2023-03-12T10:51:54;4.40;;;2.70;;
38208;SDS011;24016;52.102;11.584;2023-03-12T10:54:31;5.82;;;2.83;;
38208;SDS011;24016;52.102;11.584;2023-03-12T10:57:05;5.18;;;2.67;;
38208;SDS011;24016;52.102;11.584;2023-03-12T10:59:32;3.47;;;2.17;;
38208;SDS011;24016;52.102;11.584;2023-03-12T11:02:00;8.43;;;2.65;;
38208;SDS011;24016;52.102;11.584;2023-03-12T11:04:30;8.00;;;4.03;;
38208;SDS011;24016;52.102;11.584;2023-03-12T11:07:04;7.65;;;3.05;;
38208;SDS011;24016;52.102;11.584;2023-03-12T11:09:36;5.53;;;2.72;;
38208;SDS011;24016;52.102;11.584;2023-03-12T11:12:01;4.22;;;2.00;;
38208;SDS011;24016;52.102;11.584;2023-03-12T11:14:45;5.20;;;2.70;;
38208;SDS011;24016;52.102;11.584;2023-03-12T11:17:19;4.95;;;2.67;;
38208;SDS011;24016;52.102;11.584;2023-03-12T11:19:46;6.78;;;2.33;;
38208;SDS011;24016;52.102;11.584;2023-03-12T11:22:12;6.60;;;2.67;;
38208;SDS011;24016;52.102;11.584;2023-03-12T11:24:53;6.97;;;3.38;;
38208;SDS011;24016;52.102;11.584;2023-03-12T11:27:26;9.13;;;3.45;;
38208;SDS011;24016;52.102;11.584;2023-03-12T11:30:00;6.80;;;3.58;;
38208;SDS011;24016;52.102;11.584;2023-03-12T11:32:32;5.28;;;2.42;;
38208;SDS011;24016;52.102;11.584;2023-03-12T11:35:01;5.78;;;2.78;;
38208;SDS011;24016;52.102;11.584;2023-03-12T11:37:42;6.25;;;2.20;;
38208;SDS011;24016;52.102;11.584;2023-03-12T11:43:55;4.60;;;2.17;;
38208;SDS011;24016;52.102;11.584;2023-03-12T11:49:33;4.50;;;2.38;;
38208;SDS011;24016;52.102;11.584;2023-03-12T11:54:31;7.82;;;2.58;;
38208;SDS011;24016;52.102;11.584;2023-03-12T11:57:26;8.13;;;2.53;;
38208;SDS011;24016;52.102;11.584;2023-03-12T12:00:14;5.57;;;2.30;;
38208;SDS011;24016;52.102;11.584;2023-03-12T12:03:01;5.30;;;2.22;;
38208;SDS011;24016;52.102;11.584;2023-03-12T12:05:48;5.80;;;2.35;;
38208;SDS011;24016;52.102;11.584;2023-03-12T12:08:38;6.45;;;2.30;;
38208;SDS011;24016;52.102;11.584;2023-03-12T12:19:06;6.15;;;2.45;;
38208;SDS011;24016;52.102;11.584;2023-03-12T12:24:48;6.00;;;2.20;;
38208;SDS011;24016;52.102;11.584;2023-03-12T12:27:28;5.78;;;2.05;;
38208;SDS011;24016;52.102;11.584;2023-03-12T12:33:04;6.47;;;2.00;;
38208;SDS011;24016;52.102;11.584;2023-03-12T12:35:43;3.42;;;1.75;;
38208;SDS011;24016;52.102;11.584;2023-03-12T12:41:02;5.07;;;1.60;;
38208;SDS011;24016;52.102;11.584;2023-03-12T12:43:38;2.42;;;1.40;;
38208;SDS011;24016;52.102;11.584;2023-03-12T12:46:13;3.70;;;1.80;;
38208;SDS011;24016;52.102;11.584;2023-03-12T12:51:43;3.53;;;1.50;;
38208;SDS011;24016;52.102;11.584;2023-03-12T12:54:25;4.57;;;1.83;;
38208;SDS011;24016;52.102;11.584;2023-03-12T12:57:24;5.65;;;2.30;;
38208;SDS011;24016;52.102;11.584;2023-03-12T13:00:07;5.32;;;2.00;;
38208;SDS011;24016;52.102;11.584;2023-03-12T13:02:47;5.80;;;1.90;;
38208;SDS011;24016;52.102;11.584;2023-03-12T13:05:24;2.58;;;1.60;;
38208;SDS011;24016;52.102;11.584;2023-03-12T13:07:52;5.05;;;2.10;;
38208;SDS011;24016;52.102;11.584;2023-03-12T13:13:02;9.80;;;3.13;;
38208;SDS011;24016;52.102;11.584;2023-03-12T13:15:35;8.50;;;4.20;;
38208;SDS011;24016;52.102;11.584;2023-03-12T13:18:06;8.35;;;3.80;;
38208;SDS011;24016;52.102;11.584;2023-03-12T13:23:31;6.15;;;3.28;;
38208;SDS011;24016;52.102;11.584;2023-03-12T13:26:29;4.93;;;2.67;;
38208;SDS011;24016;52.102;11.584;2023-03-12T13:29:18;5.28;;;3.25;;
38208;SDS011;24016;52.102;11.584;2023-03-12T13:31:54;5.72;;;2.88;;
38208;SDS011;24016;52.102;11.584;2023-03-12T13:36:52;7.25;;;3.13;;
38208;SDS011;24016;52.102;11.584;2023-03-12T13:39:33;5.88;;;3.08;;
38208;SDS011;24016;52.102;11.584;2023-03-12T13:42:00;7.07;;;3.65;;
38208;SDS011;24016;52.102;11.584;2023-03-12T13:44:46;6.95;;;2.75;;
38208;SDS011;24016;52.102;11.584;2023-03-12T13:47:22;6.25;;;3.47;;
38208;SDS011;24016;52.102;11.584;2023-03-12T13:52:23;7.15;;;3.17;;
38208;SDS011;24016;52.102;11.584;2023-03-12T13:55:00;6.07;;;3.38;;
38208;SDS011;24016;52.102;11.584;2023-03-12T13:57:39;4.30;;;2.30;;
38208;SDS011;24016;52.102;11.584;2023-03-12T14:00:14;4.10;;;2.25;;
38208;SDS011;24016;52.102;11.584;2023-03-12T14:03:03;5.50;;;2.60;;
38208;SDS011;24016;52.102;11.584;2023-03-12T14:06:22;4.65;;;2.63;;
38208;SDS011;24016;52.102;11.584;2023-03-12T14:08:35;6.80;;;2.70;;
38208;SDS011;24016;52.102;11.584;2023-03-12T14:11:21;6.45;;;3.05;;
38208;SDS011;24016;52.102;11.584;2023-03-12T14:17:13;6.82;;;2.67;;
38208;SDS011;24016;52.102;11.584;2023-03-12T14:19:44;6.28;;;3.15;;
38208;SDS011;24016;52.102;11.584;2023-03-12T14:22:12;6.70;;;3.13;;
38208;SDS011;24016;52.102;11.584;2023-03-12T14:24:39;7.57;;;2.85;;
38208;SDS011;24016;52.102;11.584;2023-03-12T14:27:12;5.60;;;2.75;;
38208;SDS011;24016;52.102;11.584;2023-03-12T14:29:42;8.70;;;3.65;;
38208;SDS011;24016;52.102;11.584;2023-03-12T14:32:18;4.57;;;3.15;;
38208;SDS011;24016;52.102;11.584;2023-03-12T14:34:47;5.82;;;3.20;;
38208;SDS011;24016;52.102;11.584;2023-03-12T14:37:22;7.72;;;3.22;;
38208;SDS011;24016;52.102;11.584;2023-03-12T14:39:56;4.68;;;2.95;;
38208;SDS011;24016;52.102;11.584;2023-03-12T14:42:32;8.20;;;3.13;;
38208;SDS011;24016;52.102;11.584;2023-03-12T14:45:13;8.00;;;3.00;;
38208;SDS011;24016;52.102;11.584;2023-03-12T14:50:21;8.80;;;3.00;;
38208;SDS011;24016;52.102;11.584;2023-03-12T14:52:49;7.13;;;3.50;;
38208;SDS011;24016;52.102;11.584;2023-03-12T14:55:17;4.50;;;3.17;;
38208;SDS011;24016;52.102;11.584;2023-03-12T14:57:46;6.15;;;3.42;;
38208;SDS011;24016;52.102;11.584;2023-03-12T15:02:50;8.20;;;3.50;;
38208;SDS011;24016;52.102;11.584;2023-03-12T15:05:18;7.10;;;3.70;;
38208;SDS011;24016;52.102;11.584;2023-03-12T15:07:45;5.22;;;3.72;;
38208;SDS011;24016;52.102;11.584;2023-03-12T15:10:21;4.90;;;3.47;;
38208;SDS011;24016;52.102;11.584;2023-03-12T15:12:49;4.72;;;3.45;;
38208;SDS011;24016;52.102;11.584;2023-03-12T15:18:09;7.78;;;4.03;;
38208;SDS011;24016;52.102;11.584;2023-03-12T15:20:42;6.88;;;3.80;;
38208;SDS011;24016;52.102;11.584;2023-03-12T15:23:09;6.15;;;4.18;;
38208;SDS011;24016;52.102;11.584;2023-03-12T15:25:37;6.60;;;3.90;;
38208;SDS011;24016;52.102;11.584;2023-03-12T15:28:21;9.57;;;3.92;;
38208;SDS011;24016;52.102;11.584;2023-03-12T15:31:03;6.47;;;3.65;;
38208;SDS011;24016;52.102;11.584;2023-03-12T15:33:29;6.85;;;3.72;;
38208;SDS011;24016;52.102;11.584;2023-03-12T15:36:00;7.47;;;3.70;;
38208;SDS011;24016;52.102;11.584;2023-03-12T15:38:44;5.30;;;3.50;;
38208;SDS011;24016;52.102;11.584;2023-03-12T15:41:20;7.50;;;4.47;;
38208;SDS011;24016;52.102;11.584;2023-03-12T15:43:51;5.53;;;4.13;;
38208;SDS011;24016;52.102;11.584;2023-03-12T15:46:19;6.22;;;4.50;;
38208;SDS011;24016;52.102;11.584;2023-03-12T15:48:46;8.85;;;4.47;;
38208;SDS011;24016;52.102;11.584;2023-03-12T15:51:36;10.07;;;4.47;;
38208;SDS011;24016;52.102;11.584;2023-03-12T15:54:05;6.50;;;4.20;;
38208;SDS011;24016;52.102;11.584;2023-03-12T15:56:51;7.22;;;4.45;;
38208;SDS011;24016;52.102;11.584;2023-03-12T15:59:19;6.38;;;4.40;;